Time;durP1;ratioP1;P1;durP2;ratioP2;P2;SDS_P1;SDS_P2;PMS_P1;PMS_P2;Temp;Humidity;BMP_temperature;BMP_pressure;BME280_temperature;BME280_humidity;BME280_pressure;Samples;Min_cycle;Max_cycle;Signal;HPM_P1;HPM_P2
2021/10/19 00:01:57;;;;;;;6.57;5.97;;;;;;;;;;5071337;28;20439;-50
2021/10/19 00:04:23;;;;;;;7.70;5.93;;;;;;;;;;5075801;28;20093;-53
2021/10/19 00:06:49;;;;;;;7.07;5.57;;;;;;;;;;5075039;28;20024;-54
2021/10/19 00:09:14;;;;;;;6.25;5.65;;;;;;;;;;5075765;28;20119;-54
2021/10/19 00:11:39;;;;;;;8.80;6.95;;;;;;;;;;5074980;28;20109;-54
2021/10/19 00:14:04;;;;;;;7.72;6.28;;;;;;;;;;5075258;28;20081;-52
2021/10/19 00:16:30;;;;;;;8.52;6.80;;;;;;;;;;5074158;28;20511;-52
2021/10/19 00:18:55;;;;;;;6.15;5.55;;;;;;;;;;5075334;28;20081;-51
2021/10/19 00:21:20;;;;;;;6.10;5.50;;;;;;;;;;5075195;28;20111;-52
2021/10/19 00:23:45;;;;;;;10.77;7.05;;;;;;;;;;5074880;28;20032;-49
2021/10/19 00:26:11;;;;;;;6.45;5.45;;;;;;;;;;5072188;28;20044;-51
2021/10/19 00:28:37;;;;;;;7.00;5.70;;;;;;;;;;5074695;28;20040;-53
2021/10/19 00:31:03;;;;;;;8.82;6.30;;;;;;;;;;5074781;28;20033;-52
2021/10/19 00:33:28;;;;;;;6.93;5.50;;;;;;;;;;5074939;28;20035;-51
2021/10/19 00:35:53;;;;;;;6.05;5.32;;;;;;;;;;5075126;28;20108;-50
2021/10/19 00:38:18;;;;;;;6.60;5.90;;;;;;;;;;5074949;28;20017;-52
2021/10/19 00:40:43;;;;;;;6.00;5.30;;;;;;;;;;5074860;28;20131;-50
2021/10/19 00:43:09;;;;;;;7.10;6.07;;;;;;;;;;5074592;28;20081;-53
2021/10/19 00:45:34;;;;;;;6.55;5.78;;;;;;;;;;5075221;28;20024;-51
2021/10/19 00:48:00;;;;;;;7.82;6.65;;;;;;;;;;5074843;28;20559;-49
2021/10/19 00:50:25;;;;;;;6.72;5.93;;;;;;;;;;5075179;28;20037;-49
2021/10/19 00:52:51;;;;;;;6.72;5.60;;;;;;;;;;5074504;28;20453;-51
2021/10/19 00:55:17;;;;;;;8.10;5.82;;;;;;;;;;5074474;28;20485;-50
2021/10/19 00:57:43;;;;;;;7.15;5.55;;;;;;;;;;5071530;28;20020;-51
2021/10/19 01:00:09;;;;;;;6.57;5.88;;;;;;;;;;5073976;28;20027;-51
2021/10/19 01:02:35;;;;;;;6.65;5.60;;;;;;;;;;5074105;28;20028;-51
2021/10/19 01:05:01;;;;;;;8.38;6.05;;;;;;;;;;5074639;28;20016;-51
2021/10/19 01:07:27;;;;;;;6.70;5.40;;;;;;;;;;5074486;28;20501;-51
2021/10/19 01:09:52;;;;;;;5.60;5.00;;;;;;;;;;5084166;28;20032;-51
2021/10/19 01:12:17;;;;;;;5.90;5.30;;;;;;;;;;5074203;28;20320;-53
2021/10/19 01:14:42;;;;;;;6.13;5.53;;;;;;;;;;5073149;28;20096;-51
2021/10/19 01:17:11;;;;;;;5.70;5.20;;;;;;;;;;5074695;28;20023;-51
2021/10/19 01:19:36;;;;;;;7.10;5.78;;;;;;;;;;5074157;28;20013;-49
2021/10/19 01:22:03;;;;;;;8.80;4.97;;;;;;;;;;5072122;28;20082;-53
2021/10/19 01:24:28;;;;;;;6.30;5.05;;;;;;;;;;5074727;28;20050;-51
2021/10/19 01:26:53;;;;;;;6.75;5.47;;;;;;;;;;5070593;28;20479;-51
2021/10/19 01:29:18;;;;;;;5.25;4.57;;;;;;;;;;5080480;28;20115;-46
2021/10/19 01:31:51;;;;;;;6.18;4.55;;;;;;;;;;5077434;28;20067;-47
2021/10/19 01:34:16;;;;;;;5.50;4.95;;;;;;;;;;5073864;28;20071;-51
2021/10/19 01:36:42;;;;;;;4.40;4.00;;;;;;;;;;5068343;28;20056;-49
2021/10/19 01:39:08;;;;;;;6.05;5.43;;;;;;;;;;5074379;28;20020;-50
2021/10/19 01:41:33;;;;;;;6.32;5.10;;;;;;;;;;5073056;28;20434;-52
2021/10/19 01:43:58;;;;;;;6.35;4.80;;;;;;;;;;5078053;28;20021;-50
2021/10/19 01:46:23;;;;;;;6.18;5.07;;;;;;;;;;5072787;28;20393;-52
2021/10/19 01:48:48;;;;;;;5.63;4.40;;;;;;;;;;5074257;28;20029;-49
2021/10/19 01:51:14;;;;;;;5.60;4.50;;;;;;;;;;5073457;28;20393;-52
2021/10/19 01:53:39;;;;;;;5.45;4.93;;;;;;;;;;5073232;28;20109;-48
2021/10/19 01:56:05;;;;;;;5.35;4.85;;;;;;;;;;5071830;28;20070;-53
2021/10/19 01:58:30;;;;;;;5.55;4.55;;;;;;;;;;5072596;28;20052;-50
2021/10/19 02:00:56;;;;;;;6.00;4.40;;;;;;;;;;5073026;28;20024;-47
2021/10/19 02:03:21;;;;;;;5.40;4.90;;;;;;;;;;5073672;28;20488;-51
2021/10/19 02:05:49;;;;;;;5.03;4.50;;;;;;;;;;5072967;28;20024;-50
2021/10/19 02:08:14;;;;;;;5.65;4.43;;;;;;;;;;5073864;28;20535;-52
2021/10/19 02:10:39;;;;;;;5.57;4.68;;;;;;;;;;5072579;28;20051;-52
2021/10/19 02:13:06;;;;;;;6.43;4.30;;;;;;;;;;5073067;28;20485;-51
2021/10/19 02:15:32;;;;;;;6.03;4.63;;;;;;;;;;5071357;28;20044;-53
2021/10/19 02:17:58;;;;;;;5.18;4.57;;;;;;;;;;5064508;28;20066;-53
2021/10/19 02:20:23;;;;;;;5.85;4.78;;;;;;;;;;5073532;28;20005;-52
2021/10/19 02:22:49;;;;;;;7.38;4.88;;;;;;;;;;5071674;28;20013;-50
2021/10/19 02:25:15;;;;;;;4.90;4.50;;;;;;;;;;5072363;28;20605;-47
2021/10/19 02:27:40;;;;;;;6.80;4.80;;;;;;;;;;5071637;28;20051;-51
2021/10/19 02:30:07;;;;;;;5.00;4.50;;;;;;;;;;5073741;28;20059;-52
2021/10/19 02:32:32;;;;;;;5.38;4.28;;;;;;;;;;5072423;28;20028;-52
2021/10/19 02:34:57;;;;;;;5.18;4.68;;;;;;;;;;5072630;28;20016;-50
2021/10/19 02:37:23;;;;;;;4.80;4.10;;;;;;;;;;5072870;28;20024;-51
2021/10/19 02:39:48;;;;;;;5.15;4.38;;;;;;;;;;5072718;28;20016;-53
2021/10/19 02:42:13;;;;;;;5.10;4.57;;;;;;;;;;5072354;28;20151;-52
2021/10/19 02:44:40;;;;;;;4.72;4.22;;;;;;;;;;5071727;28;20016;-48
2021/10/19 02:47:05;;;;;;;5.50;5.00;;;;;;;;;;5072971;28;20215;-52
2021/10/19 02:49:30;;;;;;;5.68;5.00;;;;;;;;;;5072308;28;20020;-53
2021/10/19 02:51:55;;;;;;;6.57;4.82;;;;;;;;;;5071767;28;20380;-53
2021/10/19 02:54:20;;;;;;;5.95;4.80;;;;;;;;;;5071621;28;20476;-54
2021/10/19 02:56:45;;;;;;;5.35;4.85;;;;;;;;;;5071242;28;20095;-50
2021/10/19 02:59:11;;;;;;;6.05;5.07;;;;;;;;;;5074274;28;20024;-53
2021/10/19 03:01:36;;;;;;;6.03;4.82;;;;;;;;;;5072086;28;20028;-48
2021/10/19 03:04:01;;;;;;;5.07;4.30;;;;;;;;;;5071859;28;20039;-50
2021/10/19 03:06:26;;;;;;;5.25;4.72;;;;;;;;;;5072107;28;20032;-50
2021/10/19 03:08:54;;;;;;;7.32;4.82;;;;;;;;;;5071233;28;20032;-54
2021/10/19 03:11:19;;;;;;;5.78;4.40;;;;;;;;;;5071191;28;20392;-52
2021/10/19 03:13:44;;;;;;;5.10;3.70;;;;;;;;;;5072524;28;20036;-50
2021/10/19 03:16:09;;;;;;;5.65;4.53;;;;;;;;;;5071924;28;20103;-52
2021/10/19 03:18:34;;;;;;;5.53;4.15;;;;;;;;;;5072181;28;20043;-49
2021/10/19 03:21:00;;;;;;;4.65;4.00;;;;;;;;;;5071753;28;20028;-49
2021/10/19 03:23:25;;;;;;;4.78;4.25;;;;;;;;;;5071785;28;20041;-52
2021/10/19 03:25:50;;;;;;;5.00;4.20;;;;;;;;;;5068560;28;20028;-49
2021/10/19 03:28:15;;;;;;;4.20;3.80;;;;;;;;;;5071352;28;20036;-51
2021/10/19 03:30:40;;;;;;;4.30;3.80;;;;;;;;;;5071982;28;20425;-52
2021/10/19 03:33:06;;;;;;;5.28;3.70;;;;;;;;;;5071705;28;20040;-48
2021/10/19 03:35:31;;;;;;;3.88;3.55;;;;;;;;;;5071501;28;20019;-52
2021/10/19 03:37:57;;;;;;;4.43;3.75;;;;;;;;;;5071085;28;20376;-51
2021/10/19 03:40:22;;;;;;;4.75;3.70;;;;;;;;;;5071639;28;20032;-50
2021/10/19 03:42:50;;;;;;;4.60;4.20;;;;;;;;;;5071473;28;20051;-53
2021/10/19 03:45:15;;;;;;;5.97;3.90;;;;;;;;;;5071610;28;20033;-52
2021/10/19 03:47:41;;;;;;;4.35;3.83;;;;;;;;;;5070115;28;20070;-53
2021/10/19 03:50:06;;;;;;;5.63;4.05;;;;;;;;;;5071543;28;20020;-54
2021/10/19 03:52:31;;;;;;;4.75;4.22;;;;;;;;;;5071066;28;20028;-52
2021/10/19 03:54:57;;;;;;;5.13;4.10;;;;;;;;;;5071348;28;20024;-53
2021/10/19 03:57:22;;;;;;;5.93;4.47;;;;;;;;;;5069776;28;20033;-53
2021/10/19 03:59:47;;;;;;;4.60;4.20;;;;;;;;;;5071363;28;20044;-53
2021/10/19 04:02:12;;;;;;;4.95;4.50;;;;;;;;;;5071039;28;20082;-54
2021/10/19 04:04:37;;;;;;;4.93;4.47;;;;;;;;;;5070059;28;20028;-53
2021/10/19 04:07:03;;;;;;;5.70;4.50;;;;;;;;;;5071540;28;20032;-51
2021/10/19 04:09:29;;;;;;;5.82;5.15;;;;;;;;;;5071378;28;20036;-53
2021/10/19 04:11:54;;;;;;;4.95;4.45;;;;;;;;;;5070321;28;20051;-54
2021/10/19 04:14:19;;;;;;;5.70;5.20;;;;;;;;;;5071713;28;20047;-53
2021/10/19 04:16:44;;;;;;;5.90;4.45;;;;;;;;;;5069744;28;20035;-52
2021/10/19 04:19:10;;;;;;;6.03;4.78;;;;;;;;;;5065758;28;20541;-52
2021/10/19 04:21:35;;;;;;;5.15;4.20;;;;;;;;;;5071010;28;20481;-52
2021/10/19 04:24:00;;;;;;;7.40;4.13;;;;;;;;;;5071209;28;20120;-53
2021/10/19 04:26:25;;;;;;;6.18;4.35;;;;;;;;;;5067744;28;20064;-47
2021/10/19 04:28:50;;;;;;;5.22;4.20;;;;;;;;;;5076514;28;20078;-53
2021/10/19 04:31:16;;;;;;;5.53;4.57;;;;;;;;;;5068436;28;20048;-51
2021/10/19 04:33:41;;;;;;;6.80;5.38;;;;;;;;;;5063320;28;20043;-53
2021/10/19 04:36:06;;;;;;;6.13;4.63;;;;;;;;;;5069867;28;20019;-52
2021/10/19 04:38:32;;;;;;;5.70;4.65;;;;;;;;;;5071724;28;20099;-50
2021/10/19 04:40:58;;;;;;;5.85;4.93;;;;;;;;;;5070290;28;20020;-51
2021/10/19 04:43:23;;;;;;;7.43;5.78;;;;;;;;;;5071255;28;20108;-48
2021/10/19 04:45:48;;;;;;;6.07;4.22;;;;;;;;;;5071110;28;20119;-53
2021/10/19 04:48:14;;;;;;;5.88;4.63;;;;;;;;;;5071687;28;20073;-51
2021/10/19 04:50:40;;;;;;;5.63;3.95;;;;;;;;;;5074574;28;20017;-52
2021/10/19 04:53:05;;;;;;;6.82;4.35;;;;;;;;;;5074160;28;20097;-51
2021/10/19 04:55:30;;;;;;;8.10;4.45;;;;;;;;;;5073862;28;20047;-53
2021/10/19 04:57:55;;;;;;;7.05;4.85;;;;;;;;;;5072721;28;20031;-52
2021/10/19 05:00:20;;;;;;;5.70;4.00;;;;;;;;;;5074663;28;20025;-52
2021/10/19 05:02:46;;;;;;;8.40;4.07;;;;;;;;;;5073125;28;20028;-50
2021/10/19 05:05:12;;;;;;;4.90;4.22;;;;;;;;;;5074219;28;20034;-49
2021/10/19 05:07:38;;;;;;;6.05;3.90;;;;;;;;;;5071397;28;20028;-49
2021/10/19 05:10:03;;;;;;;7.47;4.13;;;;;;;;;;5072285;28;20017;-53
2021/10/19 05:12:28;;;;;;;5.10;4.30;;;;;;;;;;5075007;28;20120;-51
2021/10/19 05:14:53;;;;;;;5.28;4.47;;;;;;;;;;5073565;28;20013;-50
2021/10/19 05:17:19;;;;;;;5.88;4.20;;;;;;;;;;5074131;28;20021;-53
2021/10/19 05:19:44;;;;;;;6.22;4.45;;;;;;;;;;5073610;28;20492;-48
2021/10/19 05:22:09;;;;;;;6.40;4.40;;;;;;;;;;5073071;28;20028;-52
2021/10/19 05:24:34;;;;;;;10.50;5.30;;;;;;;;;;5073544;28;20056;-54
2021/10/19 05:26:59;;;;;;;4.30;3.90;;;;;;;;;;5067717;28;20056;-52
2021/10/19 05:29:25;;;;;;;8.02;4.60;;;;;;;;;;5075855;28;20039;-55
2021/10/19 05:31:50;;;;;;;5.82;4.60;;;;;;;;;;5072912;28;20027;-54
2021/10/19 05:34:15;;;;;;;5.38;4.45;;;;;;;;;;5069322;28;20024;-53
2021/10/19 05:36:40;;;;;;;6.40;4.80;;;;;;;;;;5074151;28;20024;-51
2021/10/19 05:39:06;;;;;;;6.28;3.85;;;;;;;;;;5073082;28;20032;-50
2021/10/19 05:41:31;;;;;;;6.38;4.40;;;;;;;;;;5072972;28;20107;-52
2021/10/19 05:43:56;;;;;;;8.30;5.00;;;;;;;;;;5072794;28;20457;-53
2021/10/19 05:46:21;;;;;;;5.60;3.72;;;;;;;;;;5073725;28;20030;-53
2021/10/19 05:48:46;;;;;;;6.15;4.40;;;;;;;;;;5071939;28;20043;-48
2021/10/19 05:51:12;;;;;;;4.88;3.97;;;;;;;;;;5072578;28;20546;-53
2021/10/19 05:53:37;;;;;;;5.40;4.72;;;;;;;;;;5072556;28;20025;-51
2021/10/19 05:56:02;;;;;;;9.48;4.95;;;;;;;;;;5069358;28;20048;-48
2021/10/19 05:58:27;;;;;;;8.85;4.40;;;;;;;;;;5072353;28;20024;-48
2021/10/19 06:00:52;;;;;;;5.10;4.30;;;;;;;;;;5071453;28;20435;-50
2021/10/19 06:03:18;;;;;;;6.55;4.13;;;;;;;;;;5073216;28;20500;-51
2021/10/19 06:05:43;;;;;;;4.75;4.00;;;;;;;;;;5072673;28;20434;-52
2021/10/19 06:08:08;;;;;;;6.05;4.43;;;;;;;;;;5072757;28;20029;-51
2021/10/19 06:10:33;;;;;;;5.28;4.43;;;;;;;;;;5071339;28;20025;-53
2021/10/19 06:12:59;;;;;;;5.15;3.88;;;;;;;;;;5071898;28;20044;-51
2021/10/19 06:15:25;;;;;;;5.60;4.28;;;;;;;;;;5071668;28;20472;-52
2021/10/19 06:17:50;;;;;;;4.43;4.03;;;;;;;;;;5072607;28;20020;-53
2021/10/19 06:20:15;;;;;;;4.60;3.88;;;;;;;;;;5074930;28;20372;-53
2021/10/19 06:22:41;;;;;;;4.65;3.92;;;;;;;;;;5071321;28;20036;-53
2021/10/19 06:25:07;;;;;;;6.60;4.40;;;;;;;;;;5072413;28;20202;-53
2021/10/19 06:27:33;;;;;;;5.00;3.95;;;;;;;;;;5067698;28;20114;-50
2021/10/19 06:29:58;;;;;;;5.10;4.28;;;;;;;;;;5072087;28;20036;-50
2021/10/19 06:32:23;;;;;;;5.35;3.88;;;;;;;;;;5066927;28;20056;-51
2021/10/19 06:34:48;;;;;;;6.25;4.35;;;;;;;;;;5068424;28;20020;-52
2021/10/19 06:37:14;;;;;;;4.25;3.60;;;;;;;;;;5071765;28;20036;-49
2021/10/19 06:39:39;;;;;;;5.53;3.67;;;;;;;;;;5071722;28;20029;-52
2021/10/19 06:42:04;;;;;;;5.57;3.60;;;;;;;;;;5071608;28;20024;-53
2021/10/19 06:44:29;;;;;;;3.58;3.25;;;;;;;;;;5071872;28;20024;-52
2021/10/19 06:46:54;;;;;;;4.25;3.60;;;;;;;;;;5071211;28;20036;-52
2021/10/19 06:49:20;;;;;;;3.75;3.15;;;;;;;;;;5071510;28;20508;-49
2021/10/19 06:51:45;;;;;;;6.05;3.00;;;;;;;;;;5071253;28;20119;-48
2021/10/19 06:54:10;;;;;;;5.88;3.28;;;;;;;;;;5071044;28;20028;-53
2021/10/19 06:56:36;;;;;;;4.63;3.95;;;;;;;;;;5066813;28;20186;-51
2021/10/19 06:59:01;;;;;;;3.47;2.92;;;;;;;;;;5071048;28;20096;-51
2021/10/19 07:01:26;;;;;;;3.83;3.30;;;;;;;;;;5069407;28;20175;-52
2021/10/19 07:03:51;;;;;;;3.45;3.03;;;;;;;;;;5071499;28;20158;-52
2021/10/19 07:06:16;;;;;;;5.13;3.35;;;;;;;;;;5071887;28;20029;-51
2021/10/19 07:08:41;;;;;;;3.50;3.00;;;;;;;;;;5071989;28;20029;-54
2021/10/19 07:11:07;;;;;;;4.80;3.08;;;;;;;;;;5070918;28;20427;-52
2021/10/19 07:13:33;;;;;;;4.00;3.20;;;;;;;;;;5071763;28;20033;-51
2021/10/19 07:15:58;;;;;;;4.45;3.15;;;;;;;;;;5071776;28;20048;-51
2021/10/19 07:18:24;;;;;;;3.80;2.97;;;;;;;;;;5071284;28;20421;-52
2021/10/19 07:20:50;;;;;;;3.75;3.00;;;;;;;;;;5072450;28;20032;-50
2021/10/19 07:23:15;;;;;;;4.95;3.63;;;;;;;;;;5071001;28;20103;-50
2021/10/19 07:25:40;;;;;;;4.38;3.35;;;;;;;;;;5070053;28;20358;-49
2021/10/19 07:28:05;;;;;;;3.88;3.40;;;;;;;;;;5069664;28;20064;-52
2021/10/19 07:30:31;;;;;;;3.38;2.70;;;;;;;;;;5071893;28;20455;-47
2021/10/19 07:32:56;;;;;;;5.10;3.30;;;;;;;;;;5071160;28;20515;-53
2021/10/19 07:35:22;;;;;;;3.78;2.80;;;;;;;;;;5071095;28;20568;-52
2021/10/19 07:37:48;;;;;;;3.30;3.00;;;;;;;;;;5071332;28;20553;-48
2021/10/19 07:40:14;;;;;;;3.85;2.92;;;;;;;;;;5067682;28;20122;-50
2021/10/19 07:42:40;;;;;;;5.40;3.53;;;;;;;;;;5070846;28;20431;-49
2021/10/19 07:45:06;;;;;;;4.60;3.13;;;;;;;;;;5069765;28;20033;-52
2021/10/19 07:47:31;;;;;;;5.68;3.35;;;;;;;;;;5071667;28;20071;-52
2021/10/19 07:49:57;;;;;;;3.70;2.97;;;;;;;;;;5071439;28;20480;-50
2021/10/19 07:52:22;;;;;;;3.40;2.85;;;;;;;;;;5069882;28;20021;-48
2021/10/19 07:54:47;;;;;;;3.72;2.90;;;;;;;;;;5052164;28;20028;-51
2021/10/19 07:57:12;;;;;;;3.40;3.05;;;;;;;;;;5066472;28;20025;-52
2021/10/19 07:59:37;;;;;;;3.08;2.78;;;;;;;;;;5070379;28;20039;-46
2021/10/19 08:02:02;;;;;;;3.22;2.45;;;;;;;;;;5070177;28;20047;-50
2021/10/19 08:04:28;;;;;;;3.00;2.70;;;;;;;;;;5070424;28;20035;-47
2021/10/19 08:06:53;;;;;;;3.30;2.72;;;;;;;;;;5071325;28;20166;-53
2021/10/19 08:09:19;;;;;;;3.28;2.95;;;;;;;;;;5070957;28;20031;-49
2021/10/19 08:11:44;;;;;;;2.72;2.50;;;;;;;;;;5070524;28;20056;-53
2021/10/19 08:14:09;;;;;;;3.00;2.33;;;;;;;;;;5070689;28;20016;-53
2021/10/19 08:16:34;;;;;;;3.95;2.53;;;;;;;;;;5069591;28;20025;-53
2021/10/19 08:18:59;;;;;;;3.10;2.38;;;;;;;;;;5070238;28;20105;-53
2021/10/19 08:21:25;;;;;;;3.03;2.17;;;;;;;;;;5070462;28;20472;-51
2021/10/19 08:23:50;;;;;;;2.50;2.30;;;;;;;;;;5072428;28;20481;-52
2021/10/19 08:26:16;;;;;;;2.05;1.58;;;;;;;;;;5068812;28;20045;-49
2021/10/19 08:28:43;;;;;;;2.17;1.75;;;;;;;;;;5067713;28;20460;-52
2021/10/19 08:31:10;;;;;;;3.60;1.70;;;;;;;;;;5074353;28;20492;-52
2021/10/19 08:33:35;;;;;;;1.90;1.70;;;;;;;;;;5074874;28;20028;-51
2021/10/19 08:36:01;;;;;;;1.60;1.10;;;;;;;;;;5074225;28;20368;-51
2021/10/19 08:38:26;;;;;;;1.15;0.90;;;;;;;;;;5075181;28;20400;-51
2021/10/19 08:40:55;;;;;;;1.15;1.00;;;;;;;;;;5072926;28;20086;-52
2021/10/19 08:43:20;;;;;;;1.42;0.98;;;;;;;;;;5074286;28;20107;-52
2021/10/19 08:45:46;;;;;;;2.13;1.33;;;;;;;;;;5090032;28;20087;-54
2021/10/19 08:48:11;;;;;;;1.67;1.25;;;;;;;;;;5056328;28;20033;-54
2021/10/19 08:50:36;;;;;;;1.90;1.25;;;;;;;;;;5070296;28;20040;-51
2021/10/19 08:53:01;;;;;;;1.25;0.95;;;;;;;;;;5065827;28;20028;-55
2021/10/19 08:55:27;;;;;;;2.05;1.20;;;;;;;;;;5072287;28;20465;-54
2021/10/19 08:57:52;;;;;;;2.30;1.00;;;;;;;;;;5071175;28;20017;-49
2021/10/19 09:00:17;;;;;;;2.28;1.20;;;;;;;;;;5078052;28;20032;-51
2021/10/19 09:02:48;;;;;;;1.58;0.95;;;;;;;;;;5092382;28;20088;-53
2021/10/19 09:05:13;;;;;;;1.52;1.10;;;;;;;;;;5086681;28;20418;-51
2021/10/19 09:07:39;;;;;;;1.92;1.13;;;;;;;;;;5073783;28;20048;-49
2021/10/19 09:10:13;;;;;;;2.03;1.00;;;;;;;;;;5074849;28;20023;-51
2021/10/19 09:12:38;;;;;;;1.30;1.15;;;;;;;;;;5073384;28;20050;-51
2021/10/19 09:15:04;;;;;;;2.85;1.27;;;;;;;;;;5074429;28;20455;-53
2021/10/19 09:17:35;;;;;;;1.95;1.08;;;;;;;;;;5074376;28;20025;-52
2021/10/19 09:20:09;;;;;;;1.77;1.27;;;;;;;;;;5074083;28;20031;-52
2021/10/19 09:22:35;;;;;;;9.10;1.20;;;;;;;;;;5073255;28;20024;-52
2021/10/19 09:25:00;;;;;;;1.30;1.00;;;;;;;;;;5074044;28;20082;-52
2021/10/19 09:27:25;;;;;;;1.15;1.05;;;;;;;;;;5076609;28;20079;-53
2021/10/19 09:29:50;;;;;;;2.03;1.20;;;;;;;;;;5073552;28;20507;-53
2021/10/19 09:32:18;;;;;;;1.27;0.90;;;;;;;;;;5072513;28;20544;-47
2021/10/19 09:34:45;;;;;;;1.30;0.95;;;;;;;;;;5073029;28;20381;-52
2021/10/19 09:37:11;;;;;;;1.00;0.68;;;;;;;;;;5073776;28;20032;-51
2021/10/19 09:39:36;;;;;;;2.58;1.27;;;;;;;;;;5076590;28;20508;-53
2021/10/19 09:42:05;;;;;;;1.42;1.23;;;;;;;;;;5073335;28;20008;-53
2021/10/19 09:44:30;;;;;;;2.53;1.20;;;;;;;;;;5053873;28;20357;-49
2021/10/19 09:46:55;;;;;;;1.60;1.08;;;;;;;;;;5053943;28;20028;-53
2021/10/19 09:49:21;;;;;;;3.25;1.02;;;;;;;;;;5057176;28;20024;-52
2021/10/19 09:51:47;;;;;;;1.50;1.05;;;;;;;;;;5073265;28;20469;-51
2021/10/19 09:54:12;;;;;;;2.05;1.20;;;;;;;;;;5072591;28;20020;-52
2021/10/19 09:56:38;;;;;;;3.22;1.10;;;;;;;;;;5072764;28;20021;-53
2021/10/19 09:59:03;;;;;;;2.22;1.10;;;;;;;;;;5074522;28;20020;-50
2021/10/19 10:01:29;;;;;;;1.55;1.30;;;;;;;;;;5072784;28;20078;-52
2021/10/19 10:03:55;;;;;;;1.67;1.40;;;;;;;;;;5073330;28;20035;-51
2021/10/19 10:06:20;;;;;;;2.17;1.10;;;;;;;;;;5073117;28;20031;-50
2021/10/19 10:08:46;;;;;;;1.80;1.42;;;;;;;;;;5073350;28;20388;-52
2021/10/19 10:11:11;;;;;;;1.20;1.08;;;;;;;;;;5072370;28;20029;-53
2021/10/19 10:13:36;;;;;;;1.65;1.23;;;;;;;;;;5072989;28;20115;-53
2021/10/19 10:16:09;;;;;;;2.58;1.23;;;;;;;;;;5073040;28;20025;-52
2021/10/19 10:18:34;;;;;;;1.75;1.00;;;;;;;;;;5072024;28;20071;-52
2021/10/19 10:21:10;;;;;;;1.48;1.15;;;;;;;;;;5073043;28;20467;-49
2021/10/19 10:23:36;;;;;;;1.42;0.60;;;;;;;;;;5072598;28;20020;-52
2021/10/19 10:26:02;;;;;;;0.90;0.80;;;;;;;;;;5070046;28;20051;-51
2021/10/19 10:28:28;;;;;;;2.33;1.20;;;;;;;;;;5072426;28;20271;-49
2021/10/19 10:30:55;;;;;;;1.52;0.70;;;;;;;;;;5072657;28;20086;-55
2021/10/19 10:33:30;;;;;;;2.05;1.20;;;;;;;;;;5072591;28;20066;-55
2021/10/19 10:35:59;;;;;;;3.05;1.33;;;;;;;;;;5057508;28;20462;-54
2021/10/19 10:38:24;;;;;;;1.25;1.15;;;;;;;;;;5063172;28;20024;-50
2021/10/19 10:40:50;;;;;;;1.55;0.80;;;;;;;;;;5072676;28;20107;-49
2021/10/19 10:43:17;;;;;;;1.88;0.98;;;;;;;;;;5072284;28;20106;-53
2021/10/19 10:45:42;;;;;;;1.33;0.80;;;;;;;;;;5071635;28;20032;-52
2021/10/19 10:48:08;;;;;;;0.63;0.52;;;;;;;;;;5072431;28;20036;-48
2021/10/19 10:50:34;;;;;;;1.27;1.13;;;;;;;;;;5072414;28;20027;-53
2021/10/19 10:53:01;;;;;;;2.05;1.10;;;;;;;;;;5071627;28;20089;-53
2021/10/19 10:55:28;;;;;;;1.27;1.00;;;;;;;;;;5072323;28;20024;-53
2021/10/19 10:57:53;;;;;;;1.83;0.70;;;;;;;;;;5067262;28;20025;-55
2021/10/19 11:00:25;;;;;;;0.95;0.90;;;;;;;;;;5071610;28;20039;-53
2021/10/19 11:02:50;;;;;;;1.92;0.85;;;;;;;;;;5071498;28;20496;-52
2021/10/19 11:05:15;;;;;;;1.02;1.00;;;;;;;;;;5072299;28;20020;-55
2021/10/19 11:07:42;;;;;;;1.42;0.80;;;;;;;;;;5072200;28;20028;-50
2021/10/19 11:10:09;;;;;;;2.25;1.00;;;;;;;;;;5072172;28;20032;-56
2021/10/19 11:12:35;;;;;;;2.55;1.05;;;;;;;;;;5070690;28;20439;-55
2021/10/19 11:15:26;;;;;;;1.33;0.70;;;;;;;;;;5072043;28;20033;-55
2021/10/19 11:17:52;;;;;;;0.73;0.70;;;;;;;;;;5070128;28;20107;-54
2021/10/19 11:20:19;;;;;;;1.35;0.98;;;;;;;;;;5072300;28;20017;-55
2021/10/19 11:22:45;;;;;;;0.93;0.82;;;;;;;;;;5070925;28;20027;-55
2021/10/19 11:25:11;;;;;;;1.77;0.95;;;;;;;;;;5072209;28;20564;-55
2021/10/19 11:27:37;;;;;;;0.90;0.77;;;;;;;;;;5069014;28;20048;-54
2021/10/19 11:30:03;;;;;;;1.13;0.85;;;;;;;;;;5071682;28;20021;-55
2021/10/19 11:32:28;;;;;;;1.80;1.23;;;;;;;;;;5071288;28;20035;-54
2021/10/19 11:34:56;;;;;;;1.10;1.00;;;;;;;;;;5071206;28;20021;-54
2021/10/19 11:37:21;;;;;;;2.20;1.20;;;;;;;;;;5072080;28;20063;-53
2021/10/19 11:39:46;;;;;;;2.07;1.17;;;;;;;;;;5071361;28;20485;-52
2021/10/19 11:42:12;;;;;;;1.45;0.90;;;;;;;;;;5069336;28;20303;-51
2021/10/19 11:44:37;;;;;;;1.20;1.00;;;;;;;;;;5069499;28;20028;-52
2021/10/19 11:47:04;;;;;;;1.20;0.70;;;;;;;;;;5065454;28;20037;-52
2021/10/19 11:49:30;;;;;;;1.30;1.20;;;;;;;;;;5069279;28;20035;-52
2021/10/19 11:51:56;;;;;;;1.35;0.95;;;;;;;;;;5062864;28;20516;-53
2021/10/19 11:54:22;;;;;;;1.20;1.10;;;;;;;;;;5070857;28;20048;-49
2021/10/19 11:57:00;;;;;;;2.63;1.00;;;;;;;;;;5068931;28;20031;-52
2021/10/19 11:59:26;;;;;;;1.60;1.45;;;;;;;;;;5063437;28;20185;-52
2021/10/19 12:01:53;;;;;;;1.02;0.70;;;;;;;;;;5070943;28;20115;-48
2021/10/19 12:04:23;;;;;;;1.83;1.30;;;;;;;;;;5070620;28;20012;-53
2021/10/19 12:06:48;;;;;;;5.45;1.80;;;;;;;;;;5071606;28;20044;-53
2021/10/19 12:09:17;;;;;;;1.75;1.65;;;;;;;;;;5071081;28;20420;-51
2021/10/19 12:11:54;;;;;;;3.05;1.60;;;;;;;;;;5070092;28;20105;-52
2021/10/19 12:14:46;;;;;;;1.70;1.60;;;;;;;;;;5078680;28;20028;-45
2021/10/19 12:17:11;;;;;;;2.00;1.80;;;;;;;;;;5069946;28;20055;-51
2021/10/19 12:19:38;;;;;;;1.88;1.23;;;;;;;;;;5071128;28;20457;-48
2021/10/19 12:22:06;;;;;;;1.50;1.35;;;;;;;;;;5070686;28;20484;-49
2021/10/19 12:24:36;;;;;;;1.98;1.20;;;;;;;;;;5071528;28;20481;-53
2021/10/19 12:27:02;;;;;;;3.03;1.25;;;;;;;;;;5068300;28;20052;-49
2021/10/19 12:29:29;;;;;;;2.30;2.10;;;;;;;;;;5071344;28;20094;-52
2021/10/19 12:31:55;;;;;;;2.47;1.88;;;;;;;;;;5070625;28;20020;-47
2021/10/19 12:34:23;;;;;;;2.15;1.98;;;;;;;;;;5070020;28;20040;-54
2021/10/19 12:36:48;;;;;;;3.30;1.67;;;;;;;;;;5071088;28;20481;-52
2021/10/19 12:39:14;;;;;;;2.15;1.98;;;;;;;;;;5068169;28;20059;-51
2021/10/19 12:41:40;;;;;;;2.58;2.00;;;;;;;;;;5067828;28;20184;-51
2021/10/19 12:44:09;;;;;;;3.15;2.10;;;;;;;;;;5070731;28;20107;-52
2021/10/19 12:46:34;;;;;;;2.83;1.17;;;;;;;;;;5070629;28;20086;-52
2021/10/19 12:49:02;;;;;;;2.10;1.90;;;;;;;;;;5070942;28;20028;-53
2021/10/19 12:51:27;;;;;;;3.13;2.28;;;;;;;;;;5068544;28;20029;-53
2021/10/19 12:53:52;;;;;;;2.90;1.67;;;;;;;;;;5070273;28;20503;-53
2021/10/19 12:56:38;;;;;;;2.22;1.73;;;;;;;;;;5065385;28;20029;-53
2021/10/19 12:59:04;;;;;;;2.63;1.63;;;;;;;;;;5068931;28;20098;-50
2021/10/19 13:01:30;;;;;;;3.63;1.40;;;;;;;;;;5069805;28;20146;-46
2021/10/19 13:03:56;;;;;;;1.20;1.10;;;;;;;;;;5069235;28;20492;-53
2021/10/19 13:06:21;;;;;;;1.27;1.10;;;;;;;;;;5068682;28;20127;-53
2021/10/19 13:08:48;;;;;;;1.30;1.15;;;;;;;;;;5070025;28;20033;-53
2021/10/19 13:11:14;;;;;;;1.33;0.80;;;;;;;;;;5073219;28;20020;-52
2021/10/19 13:13:40;;;;;;;2.45;1.13;;;;;;;;;;5074107;28;20114;-52
2021/10/19 13:16:06;;;;;;;1.60;1.10;;;;;;;;;;5070058;28;20060;-54
2021/10/19 13:18:33;;;;;;;2.72;1.17;;;;;;;;;;5073755;28;20013;-52
2021/10/19 13:20:58;;;;;;;1.67;1.15;;;;;;;;;;5073910;28;20101;-52
2021/10/19 13:23:24;;;;;;;1.30;1.20;;;;;;;;;;5064542;28;20092;-53
2021/10/19 13:25:50;;;;;;;1.65;0.80;;;;;;;;;;5062863;28;20135;-51
2021/10/19 13:28:17;;;;;;;1.80;1.10;;;;;;;;;;5072288;28;20035;-51
2021/10/19 13:30:46;;;;;;;1.30;0.90;;;;;;;;;;5067340;28;20016;-52
2021/10/19 13:33:11;;;;;;;1.30;1.17;;;;;;;;;;5071416;28;20121;-51
2021/10/19 13:35:37;;;;;;;2.08;1.13;;;;;;;;;;5066466;28;20052;-53
2021/10/19 13:38:02;;;;;;;1.88;1.30;;;;;;;;;;5073840;28;20016;-48
2021/10/19 13:40:28;;;;;;;5.93;1.35;;;;;;;;;;5068868;28;20025;-52
2021/10/19 13:42:53;;;;;;;1.60;1.40;;;;;;;;;;5072131;28;20103;-52
2021/10/19 13:45:18;;;;;;;1.77;1.50;;;;;;;;;;5074020;28;20020;-50
2021/10/19 13:47:43;;;;;;;1.95;1.40;;;;;;;;;;5073578;28;20025;-52
2021/10/19 13:50:10;;;;;;;1.65;1.42;;;;;;;;;;5068113;28;20021;-52
2021/10/19 13:52:36;;;;;;;2.45;1.45;;;;;;;;;;5083511;28;20020;-53
2021/10/19 13:55:01;;;;;;;1.38;1.27;;;;;;;;;;5073691;28;20040;-51
2021/10/19 13:57:27;;;;;;;2.45;1.50;;;;;;;;;;5067783;28;20074;-53
2021/10/19 13:59:52;;;;;;;3.00;1.58;;;;;;;;;;5072332;28;20078;-51
2021/10/19 14:02:17;;;;;;;1.85;1.50;;;;;;;;;;5070466;28;20035;-50
2021/10/19 14:04:43;;;;;;;1.85;1.55;;;;;;;;;;5086284;28;20029;-50
2021/10/19 14:07:08;;;;;;;2.92;1.60;;;;;;;;;;5076571;28;20055;-51
2021/10/19 14:09:34;;;;;;;1.85;1.75;;;;;;;;;;5072708;28;20372;-51
2021/10/19 14:12:01;;;;;;;1.92;1.33;;;;;;;;;;5066193;28;20029;-53
2021/10/19 14:14:27;;;;;;;1.63;1.50;;;;;;;;;;5054204;28;20223;-53
2021/10/19 14:16:53;;;;;;;2.15;1.50;;;;;;;;;;5066585;28;20034;-52
2021/10/19 14:19:18;;;;;;;1.50;1.40;;;;;;;;;;5070570;28;20013;-53
2021/10/19 14:21:43;;;;;;;2.63;1.48;;;;;;;;;;5070446;28;20037;-53
2021/10/19 14:24:10;;;;;;;1.73;1.48;;;;;;;;;;5069058;28;20093;-51
2021/10/19 14:26:35;;;;;;;1.52;1.42;;;;;;;;;;5062970;28;20205;-53
2021/10/19 14:29:01;;;;;;;2.28;1.27;;;;;;;;;;5064714;28;20482;-53
2021/10/19 14:31:26;;;;;;;1.50;1.40;;;;;;;;;;5069778;28;20029;-53
2021/10/19 14:33:51;;;;;;;2.22;1.63;;;;;;;;;;5070797;28;20495;-51
2021/10/19 14:36:20;;;;;;;2.65;1.67;;;;;;;;;;5070732;28;20055;-47